Time;durP1;ratioP1;P1;durP2;ratioP2;P2;SDS_P1;SDS_P2;PMS_P1;PMS_P2;Temp;Humidity;BMP_temperature;BMP_pressure;BME280_temperature;BME280_humidity;BME280_pressure;Samples;Min_cycle;Max_cycle;Signal;HPM_P1;HPM_P2
2021/07/29 00:00:57;;;;;;;4.70;1.55;;;16.70;82.70;;;;;;5019105;28;20056;-78
2021/07/29 00:03:23;;;;;;;5.85;1.83;;;16.60;82.60;;;;;;5036752;28;20029;-79
2021/07/29 00:05:52;;;;;;;6.65;1.85;;;16.60;82.80;;;;;;5035697;28;20550;-77
2021/07/29 00:08:19;;;;;;;6.82;2.03;;;16.60;82.80;;;;;;5003449;28;20065;-77
2021/07/29 00:10:46;;;;;;;9.18;1.92;;;16.60;82.90;;;;;;5035106;28;20084;-80
2021/07/29 00:13:12;;;;;;;8.55;2.55;;;16.60;83.10;;;;;;5036477;28;20033;-78
2021/07/29 00:15:38;;;;;;;6.60;1.90;;;16.50;82.90;;;;;;5036503;28;20029;-78
2021/07/29 00:20:29;;;;;;;6.93;2.13;;;16.60;83.00;;;;;;5036516;28;20030;-76
2021/07/29 00:22:59;;;;;;;6.43;2.00;;;16.60;82.90;;;;;;5036332;28;20033;-77
2021/07/29 00:25:26;;;;;;;5.60;2.00;;;16.60;82.80;;;;;;5018669;28;20029;-80
2021/07/29 00:27:54;;;;;;;5.00;1.60;;;16.60;82.70;;;;;;5034961;28;20033;-78
2021/07/29 00:30:21;;;;;;;7.45;2.13;;;16.60;82.60;;;;;;5035065;28;20048;-78
2021/07/29 00:32:47;;;;;;;5.80;1.77;;;16.60;83.10;;;;;;5036237;28;20057;-76
2021/07/29 00:35:15;;;;;;;6.25;1.50;;;16.60;82.50;;;;;;5034939;28;20022;-78
2021/07/29 00:37:42;;;;;;;7.90;1.60;;;16.50;82.40;;;;;;5034911;28;20477;-77
2021/07/29 00:40:08;;;;;;;7.75;2.45;;;16.50;82.40;;;;;;5034648;28;20053;-80
2021/07/29 00:42:34;;;;;;;5.90;1.60;;;16.50;82.50;;;;;;5036150;28;20026;-78
2021/07/29 00:44:59;;;;;;;6.75;2.17;;;16.50;82.60;;;;;;5001920;28;20385;-81
2021/07/29 00:47:25;;;;;;;4.03;1.70;;;16.40;82.60;;;;;;5018199;28;20037;-79
2021/07/29 00:49:51;;;;;;;4.93;1.33;;;16.40;82.70;;;;;;5034552;28;20030;-81
2021/07/29 00:52:21;;;;;;;5.55;1.50;;;16.40;82.70;;;;;;5035791;28;20025;-78
2021/07/29 00:54:51;;;;;;;4.80;1.65;;;16.40;82.80;;;;;;5035669;28;20036;-78
2021/07/29 00:57:17;;;;;;;7.63;1.65;;;16.30;82.80;;;;;;5035981;28;20164;-78
2021/07/29 00:59:42;;;;;;;9.38;1.77;;;16.30;82.90;;;;;;5034459;28;20075;-76
2021/07/29 01:02:09;;;;;;;5.32;1.55;;;16.30;83.10;;;;;;5035569;28;20113;-79
2021/07/29 01:04:35;;;;;;;5.20;1.30;;;16.30;83.30;;;;;;5017803;28;20029;-77
2021/07/29 01:07:02;;;;;;;6.18;1.60;;;16.20;83.30;;;;;;5033795;28;20025;-75
2021/07/29 01:09:29;;;;;;;6.72;2.00;;;16.20;83.30;;;;;;5036694;28;20087;-79
2021/07/29 01:11:54;;;;;;;4.07;1.23;;;16.20;83.40;;;;;;5046470;28;20125;-78
2021/07/29 01:14:20;;;;;;;7.50;1.52;;;16.20;83.50;;;;;;5033954;28;20049;-79
2021/07/29 01:16:46;;;;;;;6.72;1.50;;;16.20;83.50;;;;;;5035429;28;20068;-77
2021/07/29 01:19:17;;;;;;;8.88;1.52;;;16.10;84.30;;;;;;5018007;28;20393;-77
2021/07/29 01:21:43;;;;;;;9.27;1.60;;;16.10;83.70;;;;;;5043421;28;20100;-78
2021/07/29 01:24:08;;;;;;;8.23;1.67;;;16.10;83.90;;;;;;5036612;28;20068;-78
2021/07/29 01:26:34;;;;;;;4.18;1.23;;;16.10;83.80;;;;;;5034825;28;20481;-78
2021/07/29 01:29:01;;;;;;;8.57;1.88;;;16.10;83.90;;;;;;5033920;28;20060;-80
2021/07/29 01:31:27;;;;;;;7.95;1.80;;;16.10;83.90;;;;;;5033822;28;20402;-79
2021/07/29 01:33:54;;;;;;;6.22;1.55;;;16.00;84.10;;;;;;5034989;28;20484;-77
2021/07/29 01:36:20;;;;;;;5.75;1.58;;;16.00;84.10;;;;;;5033724;28;20488;-78
2021/07/29 01:38:46;;;;;;;6.38;1.55;;;16.10;84.30;;;;;;5034818;28;20030;-78
2021/07/29 01:41:14;;;;;;;4.40;1.20;;;16.00;84.40;;;;;;5035037;28;20038;-79
2021/07/29 01:43:39;;;;;;;6.15;1.63;;;16.00;84.30;;;;;;5050280;28;20474;-78
2021/07/29 01:46:05;;;;;;;6.97;1.27;;;16.00;84.20;;;;;;5033657;28;20032;-77
2021/07/29 01:48:33;;;;;;;7.55;1.45;;;16.00;84.40;;;;;;5034614;28;20041;-78
2021/07/29 01:50:58;;;;;;;7.95;2.05;;;16.00;84.50;;;;;;5034593;28;20021;-77
2021/07/29 01:53:24;;;;;;;7.57;1.30;;;16.00;84.50;;;;;;5033441;28;20025;-79
2021/07/29 01:55:51;;;;;;;7.00;1.35;;;16.00;84.60;;;;;;5033368;28;20029;-73
2021/07/29 01:58:17;;;;;;;8.35;1.58;;;16.00;84.50;;;;;;5034522;28;20036;-77
2021/07/29 02:00:49;;;;;;;4.20;1.40;;;16.00;84.70;;;;;;5034446;28;20037;-77
2021/07/29 02:03:14;;;;;;;7.20;1.40;;;16.00;84.70;;;;;;5034487;28;20432;-78
2021/07/29 02:05:41;;;;;;;7.90;1.65;;;15.90;84.80;;;;;;5049885;28;20040;-77
2021/07/29 02:08:07;;;;;;;5.60;1.73;;;15.90;84.80;;;;;;5034223;28;20025;-78
2021/07/29 02:10:33;;;;;;;8.65;1.77;;;15.90;85.00;;;;;;5032912;28;20021;-79
2021/07/29 02:13:00;;;;;;;7.93;1.58;;;15.90;85.00;;;;;;5032943;28;20124;-80
2021/07/29 02:15:26;;;;;;;5.75;1.73;;;15.90;85.10;;;;;;5034222;28;20032;-79
2021/07/29 02:17:59;;;;;;;5.57;1.42;;;15.90;85.00;;;;;;5034046;28;20034;-80
2021/07/29 02:20:26;;;;;;;5.80;1.38;;;15.90;85.10;;;;;;5033691;28;20055;-78
2021/07/29 02:22:52;;;;;;;7.25;1.50;;;15.90;85.20;;;;;;5049308;28;20124;-79
2021/07/29 02:25:18;;;;;;;10.73;1.38;;;15.80;85.30;;;;;;5033897;28;20064;-78
2021/07/29 02:27:44;;;;;;;8.27;2.10;;;15.80;85.30;;;;;;5049295;28;20370;-79
2021/07/29 02:30:10;;;;;;;11.82;1.90;;;15.80;85.30;;;;;;5032603;28;20108;-79
2021/07/29 02:32:38;;;;;;;7.28;1.80;;;15.80;85.40;;;;;;5032681;28;20021;-76
2021/07/29 02:35:04;;;;;;;6.60;1.70;;;15.80;85.40;;;;;;5033956;28;20021;-78
2021/07/29 02:37:30;;;;;;;7.45;1.42;;;15.80;85.50;;;;;;5032515;28;20041;-79
2021/07/29 02:39:55;;;;;;;7.60;1.52;;;15.80;85.40;;;;;;5049159;28;20037;-79
2021/07/29 02:42:21;;;;;;;8.45;1.67;;;15.80;85.60;;;;;;5032424;28;20102;-79
2021/07/29 02:44:47;;;;;;;5.93;1.40;;;15.70;85.70;;;;;;5032423;28;20025;-79
2021/07/29 02:47:14;;;;;;;5.78;1.45;;;15.70;85.80;;;;;;5032396;28;20060;-75
2021/07/29 02:49:39;;;;;;;7.50;1.55;;;15.70;85.70;;;;;;5033567;28;20421;-74
2021/07/29 02:52:05;;;;;;;9.30;1.45;;;15.70;85.70;;;;;;5033589;28;20115;-74
2021/07/29 02:54:31;;;;;;;8.13;1.83;;;15.70;85.80;;;;;;5032388;28;20025;-75
2021/07/29 02:56:56;;;;;;;9.50;2.10;;;15.70;85.90;;;;;;5049003;28;20385;-75
2021/07/29 02:59:22;;;;;;;8.90;1.60;;;15.70;86.00;;;;;;5048849;28;20477;-76
2021/07/29 03:01:48;;;;;;;9.13;1.65;;;15.70;86.20;;;;;;5048739;28;20030;-71
2021/07/29 03:04:13;;;;;;;11.15;1.85;;;15.70;86.30;;;;;;5033447;28;20470;-74
2021/07/29 03:06:39;;;;;;;6.15;1.85;;;15.70;86.50;;;;;;5031979;28;20032;-75
2021/07/29 03:09:05;;;;;;;7.78;1.77;;;15.70;86.40;;;;;;5032144;28;20029;-75
2021/07/29 03:11:30;;;;;;;7.57;1.55;;;15.70;86.50;;;;;;5033141;28;20404;-75
2021/07/29 03:13:56;;;;;;;6.72;1.63;;;15.60;86.50;;;;;;5033469;28;20029;-76
2021/07/29 03:16:22;;;;;;;6.68;1.75;;;15.60;86.70;;;;;;5033182;28;20594;-75
2021/07/29 03:18:47;;;;;;;9.80;1.77;;;15.70;86.80;;;;;;5031977;28;20090;-73
2021/07/29 03:21:13;;;;;;;8.75;1.77;;;15.70;86.80;;;;;;5033236;28;20021;-73
2021/07/29 03:23:39;;;;;;;11.68;1.60;;;15.70;86.80;;;;;;5048509;28;20599;-72
2021/07/29 03:26:05;;;;;;;6.53;1.90;;;15.70;86.80;;;;;;5048553;28;20387;-74
2021/07/29 03:28:31;;;;;;;8.32;1.63;;;15.70;87.10;;;;;;5033098;28;20069;-76
2021/07/29 03:30:58;;;;;;;6.93;1.42;;;15.70;87.00;;;;;;5033527;28;20063;-72
2021/07/29 03:33:23;;;;;;;5.25;1.30;;;15.70;87.00;;;;;;5037250;28;20025;-73
2021/07/29 03:35:49;;;;;;;6.18;1.63;;;15.70;87.10;;;;;;5052547;28;20033;-74
2021/07/29 03:38:15;;;;;;;9.52;1.85;;;15.80;87.10;;;;;;5035772;28;20500;-73
2021/07/29 03:40:41;;;;;;;10.25;2.20;;;15.80;87.10;;;;;;5037034;28;20473;-74
2021/07/29 03:43:07;;;;;;;9.73;2.15;;;15.80;87.00;;;;;;5035784;28;20072;-75
2021/07/29 03:45:40;;;;;;;15.13;2.20;;;15.80;87.50;;;;;;5036921;28;20068;-76
2021/07/29 03:48:06;;;;;;;8.88;2.78;;;15.80;86.90;;;;;;5036935;28;20030;-72
2021/07/29 03:50:32;;;;;;;10.40;2.55;;;15.80;87.10;;;;;;5052169;28;20029;-73
2021/07/29 03:52:58;;;;;;;11.45;2.33;;;15.80;87.20;;;;;;5037081;28;20158;-71
2021/07/29 03:55:24;;;;;;;11.27;2.50;;;15.80;87.20;;;;;;5035476;28;20055;-72
2021/07/29 03:57:50;;;;;;;9.50;1.77;;;15.90;87.10;;;;;;5036872;28;20029;-73
2021/07/29 04:00:16;;;;;;;7.05;1.60;;;15.90;87.10;;;;;;5052199;28;20098;-72
2021/07/29 04:02:42;;;;;;;6.82;2.08;;;15.90;87.10;;;;;;5035665;28;20061;-72
2021/07/29 04:05:12;;;;;;;13.45;1.77;;;15.90;87.10;;;;;;5035413;28;20037;-75
2021/07/29 04:07:37;;;;;;;8.32;2.03;;;15.90;87.00;;;;;;5051524;28;20038;-75
2021/07/29 04:10:04;;;;;;;8.77;1.55;;;16.00;87.00;;;;;;5035203;28;20029;-74
2021/07/29 04:12:30;;;;;;;7.05;1.58;;;16.00;87.00;;;;;;5036377;28;20439;-73
2021/07/29 04:14:56;;;;;;;8.55;1.70;;;16.00;87.00;;;;;;5052090;28;20040;-73
2021/07/29 04:17:21;;;;;;;15.05;2.33;;;16.00;86.90;;;;;;5035240;28;20033;-78
2021/07/29 04:19:47;;;;;;;16.02;2.45;;;16.00;86.90;;;;;;5035310;28;20529;-78
2021/07/29 04:22:13;;;;;;;5.75;1.17;;;16.10;87.00;;;;;;5051850;28;20489;-78
2021/07/29 04:24:39;;;;;;;6.90;1.48;;;16.00;86.90;;;;;;5034842;28;20100;-77
2021/07/29 04:27:04;;;;;;;7.18;1.60;;;16.00;86.90;;;;;;5034583;28;20037;-79
2021/07/29 04:29:32;;;;;;;10.65;1.80;;;16.10;86.90;;;;;;5036321;28;20030;-80
2021/07/29 04:31:58;;;;;;;9.43;1.67;;;16.10;86.80;;;;;;5035080;28;20057;-79
2021/07/29 04:34:24;;;;;;;10.45;1.70;;;16.00;86.60;;;;;;5034860;28;20021;-77
2021/07/29 04:36:49;;;;;;;7.18;2.15;;;16.00;86.80;;;;;;5034960;28;20036;-78
2021/07/29 04:39:15;;;;;;;10.40;2.10;;;16.00;86.80;;;;;;5034684;28;20029;-77
2021/07/29 04:41:44;;;;;;;8.48;1.77;;;16.00;87.00;;;;;;5035641;28;20033;-74
2021/07/29 04:44:12;;;;;;;5.15;1.50;;;15.90;87.10;;;;;;5034574;28;20088;-72
2021/07/29 04:46:40;;;;;;;11.23;2.10;;;15.90;87.20;;;;;;5034445;28;20030;-73
2021/07/29 04:49:07;;;;;;;12.40;1.70;;;15.90;87.30;;;;;;5035906;28;20021;-74
2021/07/29 04:51:34;;;;;;;13.00;2.35;;;15.90;88.00;;;;;;5035770;28;20029;-74
2021/07/29 04:54:00;;;;;;;8.57;1.60;;;15.90;87.40;;;;;;5051259;28;20033;-74
2021/07/29 04:56:26;;;;;;;9.85;1.85;;;15.90;87.40;;;;;;5034288;28;20025;-74
2021/07/29 04:58:52;;;;;;;9.68;2.03;;;15.80;87.60;;;;;;5050946;28;20030;-75
2021/07/29 05:01:18;;;;;;;10.50;2.53;;;15.90;87.80;;;;;;5034286;28;20036;-74
2021/07/29 05:03:44;;;;;;;8.98;1.90;;;15.90;87.80;;;;;;5034292;28;20504;-73
2021/07/29 05:06:09;;;;;;;6.72;2.10;;;15.90;88.00;;;;;;5050842;28;20033;-75
2021/07/29 05:08:38;;;;;;;10.35;2.35;;;15.90;88.10;;;;;;5050854;28;20045;-73
2021/07/29 05:11:04;;;;;;;8.63;1.83;;;15.90;88.30;;;;;;5034056;28;20099;-73
2021/07/29 05:13:31;;;;;;;11.27;2.40;;;15.90;88.30;;;;;;5034087;28;20025;-74
2021/07/29 05:15:57;;;;;;;9.45;1.90;;;15.90;88.10;;;;;;5050703;28;20461;-75
2021/07/29 05:18:23;;;;;;;8.57;2.22;;;16.00;88.10;;;;;;5035387;28;20477;-73
2021/07/29 05:20:48;;;;;;;12.18;2.28;;;16.00;88.30;;;;;;5034076;28;20121;-75
2021/07/29 05:23:17;;;;;;;15.25;2.60;;;16.10;88.30;;;;;;5050382;28;20073;-75
2021/07/29 05:25:43;;;;;;;9.23;2.33;;;16.10;88.10;;;;;;5033918;28;20037;-75
2021/07/29 05:28:09;;;;;;;10.73;1.95;;;16.10;88.00;;;;;;5033741;28;20470;-74
2021/07/29 05:30:35;;;;;;;7.20;1.35;;;16.20;88.00;;;;;;5050428;28;20040;-75
2021/07/29 05:33:01;;;;;;;12.65;2.25;;;16.20;87.90;;;;;;5033729;28;20025;-73
2021/07/29 05:35:27;;;;;;;8.00;1.83;;;16.30;87.90;;;;;;5035003;28;20031;-74
2021/07/29 05:37:53;;;;;;;10.02;2.42;;;16.30;87.70;;;;;;5034946;28;20404;-73
2021/07/29 05:40:19;;;;;;;9.50;2.03;;;16.40;87.70;;;;;;5033680;28;20116;-74
2021/07/29 05:42:45;;;;;;;12.18;1.83;;;16.50;87.60;;;;;;5033527;28;20039;-73
2021/07/29 05:45:11;;;;;;;17.98;2.75;;;16.50;87.30;;;;;;5034695;28;20118;-74
2021/07/29 05:47:37;;;;;;;11.63;1.98;;;16.50;87.00;;;;;;5034623;28;20065;-75
2021/07/29 05:50:03;;;;;;;9.25;2.15;;;16.50;87.10;;;;;;5033354;28;20029;-73
2021/07/29 05:52:29;;;;;;;12.88;2.33;;;16.50;86.80;;;;;;5034471;28;20080;-75
2021/07/29 05:54:54;;;;;;;11.55;1.85;;;16.60;86.60;;;;;;5049240;28;20065;-75
2021/07/29 05:57:20;;;;;;;6.07;1.48;;;16.60;86.40;;;;;;5034613;28;20378;-74
2021/07/29 05:59:46;;;;;;;15.48;2.58;;;16.60;86.20;;;;;;5033143;28;20034;-72
2021/07/29 06:02:11;;;;;;;13.40;2.47;;;16.70;86.10;;;;;;5049492;28;20463;-74
2021/07/29 06:04:37;;;;;;;8.93;2.03;;;16.70;85.90;;;;;;5033090;28;20034;-74
2021/07/29 06:07:03;;;;;;;10.50;2.17;;;16.70;85.60;;;;;;5033007;28;20033;-74
2021/07/29 06:09:28;;;;;;;8.68;1.77;;;16.70;85.80;;;;;;5033063;28;20058;-75
2021/07/29 06:11:54;;;;;;;9.68;1.88;;;16.70;85.80;;;;;;5032814;28;20077;-73
2021/07/29 06:14:20;;;;;;;9.80;1.90;;;16.80;85.70;;;;;;5049482;28;20587;-74
2021/07/29 06:16:45;;;;;;;11.00;2.42;;;16.80;85.60;;;;;;5034133;28;20029;-73
2021/07/29 06:19:18;;;;;;;9.95;2.28;;;16.80;85.50;;;;;;5034083;28;20057;-76
2021/07/29 06:21:45;;;;;;;11.77;2.53;;;16.80;85.30;;;;;;5034095;28;20021;-74
2021/07/29 06:24:11;;;;;;;12.52;2.88;;;16.80;85.30;;;;;;5034016;28;20025;-75
2021/07/29 06:26:37;;;;;;;9.82;2.30;;;16.70;85.30;;;;;;5049157;28;20029;-72
2021/07/29 06:29:05;;;;;;;18.48;3.30;;;16.70;85.40;;;;;;5032760;28;20026;-74
2021/07/29 06:31:32;;;;;;;13.00;3.22;;;16.70;85.50;;;;;;5032651;28;20021;-73
2021/07/29 06:33:59;;;;;;;15.32;3.42;;;16.60;85.70;;;;;;5032569;28;20466;-73
2021/07/29 06:36:25;;;;;;;11.77;2.35;;;16.70;85.80;;;;;;5049006;28;20045;-76
2021/07/29 06:38:51;;;;;;;10.38;2.72;;;16.60;85.70;;;;;;5033647;28;20029;-72
2021/07/29 06:41:17;;;;;;;10.70;2.88;;;16.60;86.00;;;;;;5049165;28;20038;-73
2021/07/29 06:43:42;;;;;;;12.38;3.30;;;16.60;85.60;;;;;;5049171;28;20041;-75
2021/07/29 06:46:09;;;;;;;17.35;2.80;;;16.60;85.50;;;;;;5049103;28;20033;-75
2021/07/29 06:48:36;;;;;;;10.52;2.78;;;16.60;85.60;;;;;;5048888;28;20120;-76
2021/07/29 06:51:06;;;;;;;10.02;2.63;;;16.70;85.60;;;;;;5032256;28;20116;-75
2021/07/29 06:53:32;;;;;;;17.98;3.92;;;16.70;85.30;;;;;;5049105;28;20029;-73
2021/07/29 06:56:01;;;;;;;22.77;3.75;;;16.70;85.00;;;;;;5048905;28;20501;-73
2021/07/29 06:58:28;;;;;;;12.73;2.88;;;16.80;85.40;;;;;;5048521;28;20112;-76
2021/07/29 07:00:54;;;;;;;18.48;3.38;;;16.90;84.70;;;;;;5031840;28;20026;-74
2021/07/29 07:03:19;;;;;;;17.75;3.92;;;17.00;84.50;;;;;;5048456;28;20029;-73
2021/07/29 07:05:46;;;;;;;10.35;2.45;;;17.10;84.00;;;;;;5033516;28;20029;-75
2021/07/29 07:08:13;;;;;;;12.93;3.08;;;17.10;83.90;;;;;;5031958;28;20473;-75
2021/07/29 07:10:39;;;;;;;13.50;3.17;;;17.20;83.20;;;;;;5031730;28;20022;-73
2021/07/29 07:13:04;;;;;;;12.45;2.70;;;17.20;83.20;;;;;;5048467;28;20064;-76
2021/07/29 07:15:30;;;;;;;13.13;2.58;;;17.30;83.30;;;;;;5033162;28;20465;-75
2021/07/29 07:17:56;;;;;;;10.93;2.38;;;17.40;82.60;;;;;;5048635;28;20025;-75
2021/07/29 07:20:23;;;;;;;14.30;3.60;;;17.50;82.50;;;;;;5031769;28;20032;-74
2021/07/29 07:22:49;;;;;;;10.40;2.38;;;17.50;81.90;;;;;;5047885;28;20029;-75
2021/07/29 07:25:15;;;;;;;13.70;2.53;;;17.60;81.20;;;;;;5047346;28;20036;-74
2021/07/29 07:27:40;;;;;;;10.13;2.42;;;17.60;80.70;;;;;;5035384;28;20040;-74
2021/07/29 07:30:07;;;;;;;9.93;2.80;;;17.60;81.00;;;;;;5052941;28;20025;-74
2021/07/29 07:32:32;;;;;;;12.73;2.08;;;17.70;81.30;;;;;;5052040;28;20399;-75
2021/07/29 07:34:58;;;;;;;12.15;2.33;;;17.80;81.30;;;;;;5052005;28;20041;-77
2021/07/29 07:37:23;;;;;;;14.68;2.67;;;17.90;80.30;;;;;;5035472;28;20074;-76
2021/07/29 07:39:49;;;;;;;12.70;2.85;;;17.90;79.50;;;;;;5052194;28;20496;-75
2021/07/29 07:42:15;;;;;;;12.57;2.45;;;17.90;79.00;;;;;;5053092;28;20075;-76
2021/07/29 07:44:41;;;;;;;12.43;2.35;;;17.90;78.90;;;;;;5051893;28;20502;-74
2021/07/29 07:47:07;;;;;;;10.57;2.58;;;18.00;78.80;;;;;;5052907;28;20029;-74
2021/07/29 07:49:33;;;;;;;13.48;2.88;;;18.00;78.80;;;;;;5051911;28;20119;-74
2021/07/29 07:52:00;;;;;;;16.17;2.20;;;18.00;78.90;;;;;;5035417;28;20388;-74
2021/07/29 07:54:26;;;;;;;9.85;2.05;;;18.00;78.50;;;;;;5053406;28;20021;-74
2021/07/29 07:56:52;;;;;;;10.95;2.15;;;18.10;77.80;;;;;;5052093;28;20071;-74
2021/07/29 07:59:17;;;;;;;10.20;2.25;;;18.10;78.30;;;;;;5035447;28;20036;-74
2021/07/29 08:01:44;;;;;;;10.57;2.40;;;18.20;76.70;;;;;;5052117;28;20029;-75
2021/07/29 08:04:10;;;;;;;12.05;2.47;;;18.10;76.00;;;;;;5035296;28;20033;-77
2021/07/29 08:06:36;;;;;;;12.82;2.25;;;18.10;76.30;;;;;;5051830;28;20354;-77
2021/07/29 08:09:03;;;;;;;12.82;2.25;;;18.00;75.90;;;;;;5052096;28;20103;-75
2021/07/29 08:11:29;;;;;;;13.75;2.63;;;18.00;76.10;;;;;;5034737;28;20079;-75
2021/07/29 08:13:55;;;;;;;14.60;2.45;;;18.00;76.50;;;;;;5051528;28;20025;-76
2021/07/29 08:16:21;;;;;;;11.68;1.88;;;18.00;75.90;;;;;;5052621;28;20362;-76
2021/07/29 08:18:46;;;;;;;10.60;2.33;;;18.00;75.70;;;;;;5054638;28;20048;-75
2021/07/29 08:21:12;;;;;;;12.80;2.20;;;18.00;76.30;;;;;;5038841;28;20029;-75
2021/07/29 08:23:42;;;;;;;8.02;2.28;;;18.20;76.60;;;;;;5056610;28;20077;-74
2021/07/29 08:26:10;;;;;;;10.85;2.20;;;18.30;75.20;;;;;;5056481;28;20029;-74
2021/07/29 08:28:41;;;;;;;9.55;2.63;;;18.30;74.20;;;;;;5054969;28;20492;-75
2021/07/29 08:31:12;;;;;;;14.65;2.20;;;18.40;73.40;;;;;;5055033;28;20049;-73
2021/07/29 08:33:39;;;;;;;13.10;1.98;;;18.50;73.10;;;;;;5056200;28;20024;-75
2021/07/29 08:36:05;;;;;;;10.98;2.38;;;18.60;72.80;;;;;;5054942;28;20053;-76
2021/07/29 08:38:31;;;;;;;6.28;1.70;;;18.70;72.80;;;;;;5038212;28;20025;-75
2021/07/29 08:40:57;;;;;;;12.07;1.77;;;18.70;71.30;;;;;;5055862;28;20036;-75
2021/07/29 08:43:22;;;;;;;11.55;2.35;;;18.70;70.80;;;;;;5054641;28;20029;-77
2021/07/29 08:45:51;;;;;;;14.15;1.95;;;18.70;70.90;;;;;;5054552;28;20078;-76
2021/07/29 08:48:27;;;;;;;9.00;1.60;;;18.80;70.70;;;;;;5055833;28;20078;-74
2021/07/29 08:50:54;;;;;;;6.28;1.63;;;18.90;71.30;;;;;;5055742;28;20069;-75
2021/07/29 08:53:21;;;;;;;12.32;1.98;;;18.90;70.40;;;;;;5055907;28;20025;-75
2021/07/29 08:55:48;;;;;;;9.20;1.70;;;19.00;70.60;;;;;;5054704;28;20025;-75
2021/07/29 08:58:14;;;;;;;6.95;1.23;;;19.10;71.10;;;;;;5038037;28;20083;-76
2021/07/29 09:00:40;;;;;;;8.20;1.50;;;19.10;69.10;;;;;;5054633;28;20021;-74
2021/07/29 09:03:19;;;;;;;7.45;1.50;;;19.20;69.10;;;;;;5054706;28;20098;-75
2021/07/29 09:06:00;;;;;;;10.68;2.05;;;19.30;69.20;;;;;;5055520;28;20064;-74
2021/07/29 09:08:26;;;;;;;10.20;1.52;;;19.30;68.90;;;;;;5055409;28;20485;-80
2021/07/29 09:10:51;;;;;;;9.60;1.30;;;19.40;69.30;;;;;;5055309;28;20033;-75
2021/07/29 09:13:18;;;;;;;9.30;1.98;;;19.40;68.40;;;;;;5055566;28;20366;-76
2021/07/29 09:15:46;;;;;;;9.57;1.92;;;19.50;67.90;;;;;;5054402;28;20025;-73
2021/07/29 09:18:18;;;;;;;8.95;1.73;;;19.50;67.00;;;;;;5055420;28;20025;-74
2021/07/29 09:20:44;;;;;;;10.95;1.80;;;19.50;67.10;;;;;;5038040;28;20372;-75
2021/07/29 09:23:18;;;;;;;9.43;1.55;;;19.60;67.20;;;;;;5054550;28;20453;-75
2021/07/29 09:25:46;;;;;;;8.82;1.75;;;19.60;66.70;;;;;;5054314;28;20124;-73
2021/07/29 09:28:31;;;;;;;11.25;1.52;;;19.60;64.50;;;;;;5053880;28;20476;-74
2021/07/29 09:30:57;;;;;;;10.68;1.85;;;19.60;64.90;;;;;;5053609;28;20425;-76
2021/07/29 09:33:22;;;;;;;9.30;1.30;;;19.60;65.00;;;;;;5055252;28;20057;-76
2021/07/29 09:35:53;;;;;;;6.90;1.30;;;19.70;64.20;;;;;;5055009;28;20033;-73
2021/07/29 09:38:31;;;;;;;6.82;1.38;;;19.70;63.90;;;;;;5053866;28;20044;-75
2021/07/29 09:40:59;;;;;;;10.68;1.40;;;19.70;62.60;;;;;;5055081;28;20484;-73
2021/07/29 09:43:36;;;;;;;10.27;1.38;;;19.80;62.50;;;;;;5054933;28;20024;-75
2021/07/29 09:46:04;;;;;;;5.95;1.27;;;19.80;61.80;;;;;;5055104;28;20035;-77
2021/07/29 09:48:30;;;;;;;10.73;1.33;;;19.90;62.50;;;;;;5053784;28;20064;-75
2021/07/29 09:50:59;;;;;;;7.38;1.35;;;20.00;62.00;;;;;;5053888;28;20389;-76
2021/07/29 09:53:35;;;;;;;9.95;1.65;;;20.10;62.00;;;;;;5054847;28;20029;-77
2021/07/29 09:56:07;;;;;;;7.95;1.40;;;20.20;61.40;;;;;;5036937;28;20472;-75
2021/07/29 09:58:34;;;;;;;8.75;2.10;;;20.30;61.70;;;;;;5054811;28;20029;-77
2021/07/29 10:01:00;;;;;;;9.63;1.63;;;20.40;61.20;;;;;;5053768;28;20021;-76
2021/07/29 10:03:27;;;;;;;11.27;1.75;;;20.40;62.00;;;;;;5053322;28;20033;-74
2021/07/29 10:06:02;;;;;;;10.20;1.50;;;20.50;61.80;;;;;;5054605;28;20029;-73
2021/07/29 10:08:37;;;;;;;11.63;1.95;;;20.60;61.20;;;;;;5054337;28;20040;-77
2021/07/29 10:11:09;;;;;;;9.60;1.77;;;20.50;61.00;;;;;;5054303;28;20039;-74
2021/07/29 10:13:39;;;;;;;6.85;1.38;;;20.50;61.30;;;;;;5053217;28;20382;-73
2021/07/29 10:16:06;;;;;;;8.38;1.70;;;20.40;61.80;;;;;;5036708;28;20021;-75
2021/07/29 10:18:52;;;;;;;8.95;1.38;;;20.50;61.10;;;;;;5054558;28;20025;-77
2021/07/29 10:21:26;;;;;;;8.73;1.58;;;20.60;60.60;;;;;;5049308;28;20459;-75
2021/07/29 10:23:56;;;;;;;9.45;1.83;;;20.80;60.90;;;;;;5054450;28;20029;-75
2021/07/29 10:26:22;;;;;;;10.23;1.75;;;20.80;60.30;;;;;;5036428;28;20029;-76
2021/07/29 10:28:48;;;;;;;6.32;1.48;;;20.70;59.40;;;;;;5054155;28;20032;-74
2021/07/29 10:31:18;;;;;;;9.98;2.45;;;20.60;60.30;;;;;;5054648;28;20063;-74
2021/07/29 10:33:46;;;;;;;9.52;1.70;;;20.60;60.70;;;;;;5054047;28;20079;-74
2021/07/29 10:36:44;;;;;;;10.25;2.25;;;20.50;60.70;;;;;;5053838;28;20041;-74
2021/07/29 10:39:10;;;;;;;7.45;1.10;;;20.60;60.50;;;;;;5053904;28;20017;-74
2021/07/29 10:41:41;;;;;;;13.15;1.55;;;20.70;60.40;;;;;;5052729;28;20412;-74
2021/07/29 10:44:10;;;;;;;8.90;1.60;;;20.80;60.70;;;;;;5053714;28;20048;-73
2021/07/29 10:46:54;;;;;;;10.60;1.80;;;20.70;59.90;;;;;;5053886;28;20377;-74
2021/07/29 10:49:19;;;;;;;12.48;2.28;;;20.50;64.30;;;;;;5052459;28;20048;-75
2021/07/29 10:52:04;;;;;;;13.20;3.17;;;20.00;71.80;;;;;;5052502;28;20021;-74
2021/07/29 10:54:30;;;;;;;9.23;2.75;;;19.30;76.70;;;;;;5052800;28;20028;-74
2021/07/29 10:56:56;;;;;;;12.23;3.25;;;18.60;79.40;;;;;;5052621;28;20035;-73
2021/07/29 10:59:22;;;;;;;11.20;3.92;;;18.10;81.90;;;;;;5052625;28;20490;-75
2021/07/29 11:01:49;;;;;;;14.20;4.28;;;17.80;83.90;;;;;;5052467;28;20116;-75
2021/07/29 11:04:14;;;;;;;10.73;3.33;;;17.70;86.60;;;;;;5053866;28;20397;-75
2021/07/29 11:06:42;;;;;;;7.68;3.22;;;17.70;88.90;;;;;;5035733;28;20115;-73
2021/07/29 11:09:21;;;;;;;11.27;3.30;;;18.20;89.30;;;;;;5052194;28;20366;-73
2021/07/29 11:11:50;;;;;;;9.40;2.47;;;18.80;88.60;;;;;;5052001;28;20033;-75
2021/07/29 11:14:33;;;;;;;12.35;2.65;;;19.70;88.20;;;;;;5035267;28;20048;-74
2021/07/29 11:17:04;;;;;;;10.02;2.75;;;20.10;84.20;;;;;;5053205;28;20468;-75
2021/07/29 11:19:41;;;;;;;12.90;2.55;;;20.30;82.10;;;;;;5053371;28;20025;-75
2021/07/29 11:22:08;;;;;;;12.27;2.65;;;20.20;77.50;;;;;;5052205;28;20102;-74
2021/07/29 11:24:34;;;;;;;11.38;2.13;;;20.10;74.10;;;;;;5052017;28;20029;-73
2021/07/29 11:27:02;;;;;;;8.68;2.28;;;19.90;71.40;;;;;;5053100;28;20082;-75
2021/07/29 11:29:28;;;;;;;9.63;2.60;;;19.80;72.00;;;;;;5053184;28;20029;-74
2021/07/29 11:31:55;;;;;;;10.02;1.80;;;19.90;71.60;;;;;;5019243;28;20044;-76
2021/07/29 11:34:31;;;;;;;9.63;1.67;;;20.00;71.40;;;;;;5051970;28;20021;-75
2021/07/29 11:36:59;;;;;;;7.38;2.00;;;19.90;70.00;;;;;;5052310;28;20068;-77
2021/07/29 11:39:34;;;;;;;9.50;2.10;;;19.90;70.10;;;;;;5053411;28;20021;-75
2021/07/29 11:41:59;;;;;;;9.45;1.90;;;19.80;70.00;;;;;;5052161;28;20029;-77
2021/07/29 11:44:38;;;;;;;9.48;2.15;;;19.70;69.10;;;;;;5052217;28;20507;-76
2021/07/29 11:47:04;;;;;;;12.20;2.47;;;19.60;70.30;;;;;;5053234;28;20120;-77
2021/07/29 11:49:30;;;;;;;7.93;1.90;;;19.60;70.30;;;;;;5035118;28;20112;-75
2021/07/29 11:52:10;;;;;;;7.68;1.67;;;19.70;70.80;;;;;;5052469;28;20025;-74
2021/07/29 11:54:36;;;;;;;11.40;2.28;;;19.80;71.10;;;;;;5056120;28;20036;-74
2021/07/29 11:57:02;;;;;;;8.27;1.73;;;19.90;70.90;;;;;;5039322;28;20021;-74
2021/07/29 11:59:34;;;;;;;11.15;2.63;;;20.50;71.90;;;;;;5055939;28;20021;-76
2021/07/29 12:02:02;;;;;;;10.50;1.65;;;21.40;71.30;;;;;;5057032;28;20536;-76
2021/07/29 12:04:28;;;;;;;11.55;1.90;;;22.30;70.00;;;;;;5039243;28;20075;-76
2021/07/29 12:06:55;;;;;;;7.32;1.42;;;23.00;65.90;;;;;;5055639;28;20036;-76
2021/07/29 12:09:22;;;;;;;8.60;1.77;;;23.50;63.30;;;;;;5055528;28;20036;-76
2021/07/29 12:11:51;;;;;;;7.90;1.55;;;24.10;61.90;;;;;;5056326;28;20041;-76
2021/07/29 12:14:17;;;;;;;7.32;1.63;;;24.40;60.10;;;;;;5055297;28;20029;-78
2021/07/29 12:16:45;;;;;;;8.65;1.50;;;24.60;58.40;;;;;;5055477;28;20389;-78
2021/07/29 12:19:10;;;;;;;8.68;1.27;;;24.90;56.30;;;;;;5055170;28;20060;-76
2021/07/29 12:21:36;;;;;;;8.88;1.58;;;24.90;53.60;;;;;;5056482;28;20029;-75
2021/07/29 12:24:02;;;;;;;8.48;1.40;;;24.90;54.20;;;;;;5022259;28;20028;-76
2021/07/29 12:26:27;;;;;;;9.77;1.70;;;25.10;52.90;;;;;;5055737;28;20036;-74
2021/07/29 12:28:53;;;;;;;8.57;1.33;;;25.30;52.90;;;;;;5054906;28;20033;-75
2021/07/29 12:31:27;;;;;;;9.63;1.63;;;25.50;53.30;;;;;;5038917;28;20029;-76
2021/07/29 12:33:54;;;;;;;5.78;1.02;;;25.80;53.40;;;;;;5056772;28;20025;-76
2021/07/29 12:36:20;;;;;;;5.63;1.33;;;26.10;50.70;;;;;;5055151;28;20021;-78
2021/07/29 12:38:56;;;;;;;6.43;1.60;;;25.80;50.10;;;;;;5055119;28;20021;-74
2021/07/29 12:41:33;;;;;;;8.73;1.70;;;25.20;50.30;;;;;;5054800;28;20021;-76
2021/07/29 12:44:12;;;;;;;7.57;1.60;;;24.60;51.50;;;;;;5056136;28;20109;-76
2021/07/29 12:46:39;;;;;;;7.88;1.55;;;24.20;52.80;;;;;;5054892;28;20025;-74